SBOSBO MCT / OOMS
Speedbird OnlineSpeedbird Online MCT / OOMS

Muscat International Airport
05:19 17°C

Location Muscat, Oman
Latitude: 23.593299865722656
Longitude: 58.284400939941406
Web Wikipedia
Altitude 15 Meter / 48 Feet
Distance 5,794 KM / 3,600 Miles
from London.
Time Zone UTC +4 hours (Asia/Muscat)
Codes IATA: MCT
ICAO: OOMS
Currency £1 equals OMR 0.48
Runways
RunwayLength (m)Surface
08L4000Asphalt
08R3584Asphalt
26L3584Asphalt
26R4000Asphalt
Radio
TypeDescriptionFrequency
A/DAPP121.2
APPRADAR121.2
ATISATIS126.8
ClearanceMUSCAT Delivery125.575
GNDGND121.8
GNDNORTH GND121.875
TWRTWR118.4
Live ATC
METAR OOMS 270050Z 12004KT 9999 FEW025 OVC100 17/13 Q1017 NOSIG
TAF TAF OOMS 262300Z 2700/2806 21008KT 8000 SCT030 PROB30 TEMPO 2700/2706 RA BKN030 BECMG 2706/2708 35012KT PROB30 TEMPO 2711/2720 RA BKN030 BECMG 2715/2717 21008KT
Weather As Of 27 Jan 2023 05:19
Description Overcast clouds
Wind 7 km/h from South-East (120°)
Cloud Cover 100%
Precipitation Rain: none, Snow: none
Sunrise 06:49
Sunset 17:49
Lounges Primeclass Lounge, Terminal 1
Rotations During the last 90 days there were
1 flights from HYD
1 flights to LHR



Support Speedbird Online

© 2017-2023 Speedbird Online